createdAt,value
2018-06-11T05:02:54.351Z,4.70
2018-06-11T05:07:57.631Z,4.50
2018-06-11T05:13:00.902Z,5.30
2018-06-11T05:18:04.202Z,4.03
2018-06-11T05:23:07.557Z,3.47
2018-06-11T05:28:10.783Z,4.47
2018-06-11T05:33:14.842Z,5.43
2018-06-11T05:38:18.132Z,3.63
2018-06-11T05:43:22.186Z,3.87
2018-06-11T05:48:25.459Z,3.00
2018-06-11T05:53:28.799Z,3.40
2018-06-11T05:58:32.036Z,3.63
2018-06-11T06:03:35.324Z,3.33
2018-06-11T06:08:38.634Z,3.43
2018-06-11T06:13:41.912Z,2.97
2018-06-11T06:18:45.219Z,3.50
2018-06-11T06:23:48.490Z,4.03
2018-06-11T06:28:51.779Z,3.90
2018-06-11T06:33:55.104Z,3.73
2018-06-11T06:38:58.403Z,2.80
2018-06-11T06:44:01.692Z,3.57
2018-06-11T06:49:05.766Z,3.13
2018-06-11T06:54:09.551Z,3.00
2018-06-11T06:59:13.715Z,3.43
2018-06-11T07:04:17.007Z,3.00
2018-06-11T07:09:20.507Z,4.67
2018-06-11T07:14:24.555Z,6.17
2018-06-11T07:19:27.848Z,3.90
2018-06-11T07:24:31.894Z,3.53
2018-06-11T07:29:35.183Z,4.33
2018-06-11T07:34:39.242Z,4.00
2018-06-11T07:39:42.526Z,3.87
2018-06-11T07:44:46.567Z,4.40
2018-06-11T07:49:49.886Z,3.00
2018-06-11T07:54:53.182Z,2.83
2018-06-11T07:59:57.243Z,3.93
2018-06-11T08:05:00.519Z,3.87
2018-06-11T08:10:04.576Z,3.97
2018-06-11T08:15:07.864Z,4.07
2018-06-11T08:20:11.908Z,2.43
2018-06-11T08:25:15.203Z,3.20
2018-06-11T08:30:18.703Z,3.13
2018-06-11T08:35:21.982Z,5.10
2018-06-11T08:40:25.263Z,7.13
2018-06-11T08:45:28.568Z,5.07
2018-06-11T08:50:32.626Z,6.03
2018-06-11T08:55:35.926Z,4.27
2018-06-11T09:00:39.212Z,5.63
2018-06-11T09:05:42.506Z,5.20
2018-06-11T09:10:45.811Z,5.23
2018-06-11T09:15:49.244Z,4.27
2018-06-11T09:20:52.820Z,6.30
2018-06-11T09:25:56.132Z,7.07
2018-06-11T09:30:59.682Z,8.33
2018-06-11T09:36:02.918Z,5.70
2018-06-11T09:41:06.210Z,4.97
2018-06-11T09:46:09.518Z,4.80
2018-06-11T09:51:13.763Z,6.03
2018-06-11T09:56:17.816Z,4.23
2018-06-11T10:01:21.087Z,6.73
2018-06-11T10:06:24.379Z,9.37
2018-06-11T10:11:27.655Z,5.43
2018-06-11T10:16:31.248Z,7.63
2018-06-11T10:21:35.783Z,6.87
2018-06-11T10:26:39.863Z,6.37
2018-06-11T10:31:43.174Z,6.73
2018-06-11T10:36:46.452Z,6.60
2018-06-11T10:41:49.739Z,9.47
2018-06-11T10:46:54.088Z,9.90
2018-06-11T10:51:58.321Z,5.87
2018-06-11T10:57:02.379Z,6.77
2018-06-11T11:02:05.668Z,7.67
2018-06-11T11:07:09.712Z,9.50
2018-06-11T11:12:12.987Z,8.17
2018-06-11T11:17:17.048Z,9.27
2018-06-11T11:22:20.334Z,8.80
2018-06-11T11:27:24.387Z,9.93
2018-06-11T11:32:27.672Z,5.50
2018-06-11T11:37:31.718Z,16.00
2018-06-11T11:42:35.781Z,7.63
2018-06-11T11:47:39.231Z,13.30
2018-06-11T11:52:42.546Z,7.33
2018-06-11T11:57:45.846Z,11.63
2018-06-11T12:02:49.155Z,8.83
2018-06-11T12:07:52.444Z,8.30
2018-06-11T12:12:55.736Z,10.87
2018-06-11T12:17:59.019Z,11.07
2018-06-11T12:23:03.088Z,8.77
2018-06-11T12:28:06.396Z,4.15
2018-06-11T12:33:09.686Z,9.50
2018-06-11T12:38:13.210Z,6.97
2018-06-11T12:43:16.515Z,9.88
2018-06-11T12:48:19.934Z,6.72
2018-06-11T12:53:23.448Z,7.20
2018-06-11T12:58:26.759Z,8.73
2018-06-11T13:03:30.052Z,12.45
2018-06-11T13:08:34.397Z,6.28
2018-06-11T13:13:38.743Z,7.82
2018-06-11T13:18:42.164Z,8.13
2018-06-11T13:23:45.638Z,4.90
2018-06-11T13:28:49.087Z,5.28
2018-06-11T13:33:52.505Z,5.63
2018-06-11T13:38:57.254Z,6.97
2018-06-11T13:44:00.549Z,12.07
2018-06-11T13:49:04.592Z,7.03
2018-06-11T13:54:07.880Z,14.57
2018-06-11T13:59:11.162Z,10.80
2018-06-11T14:04:14.459Z,13.57
2018-06-11T14:09:17.737Z,5.80
2018-06-11T14:14:21.047Z,9.47
2018-06-11T14:19:25.095Z,10.35
2018-06-11T14:24:28.395Z,13.77
2018-06-11T14:29:32.450Z,12.37
2018-06-11T14:34:35.731Z,14.48
2018-06-11T14:39:39.023Z,9.55
2018-06-11T14:44:43.074Z,9.60
2018-06-11T14:49:46.360Z,12.20
2018-06-11T14:54:50.419Z,4.80
2018-06-11T14:59:53.704Z,9.93
2018-06-11T15:04:57.771Z,9.18
2018-06-11T15:10:01.066Z,9.15
2018-06-11T15:15:04.343Z,8.52
2018-06-11T15:20:07.641Z,7.07
2018-06-11T15:25:10.916Z,7.53
2018-06-11T15:30:14.205Z,8.95
2018-06-11T15:35:18.253Z,9.65
2018-06-11T15:40:21.567Z,7.20
2018-06-11T15:45:24.858Z,10.27
2018-06-11T15:50:28.903Z,10.20
2018-06-11T15:55:32.211Z,10.60
2018-06-11T16:00:41.893Z,7.63
2018-06-11T16:05:45.177Z,7.33
2018-06-11T16:10:52.303Z,5.73
2018-06-11T16:15:55.607Z,6.43
2018-06-11T16:20:59.112Z,9.30
2018-06-11T16:26:02.413Z,9.40
2018-06-11T16:31:06.480Z,9.67
2018-06-11T16:36:09.775Z,7.43
2018-06-11T16:41:13.076Z,6.63
2018-06-11T16:46:16.371Z,7.77
2018-06-11T16:51:20.447Z,8.10
2018-06-11T16:56:23.755Z,5.87
2018-06-11T17:01:27.234Z,7.40
2018-06-11T17:06:31.288Z,6.63
2018-06-11T17:11:34.775Z,10.00
2018-06-11T17:16:38.075Z,11.60
2018-06-11T17:21:42.151Z,12.60
2018-06-11T17:26:45.443Z,9.90
2018-06-11T17:31:48.767Z,7.97
2018-06-11T17:36:52.078Z,10.10
2018-06-11T17:41:55.399Z,8.30
2018-06-11T17:46:58.715Z,11.20
2018-06-11T17:52:02.317Z,16.93
2018-06-11T17:57:05.615Z,10.73
2018-06-11T18:02:09.684Z,10.90
2018-06-11T18:07:12.989Z,17.03
2018-06-11T18:12:17.088Z,14.93
2018-06-11T18:17:20.605Z,9.87
2018-06-11T18:22:24.027Z,9.80
2018-06-11T18:27:27.409Z,8.53
2018-06-11T18:32:31.266Z,8.03
2018-06-11T18:37:34.762Z,11.33
2018-06-11T18:42:39.270Z,7.43
2018-06-11T18:47:43.564Z,5.50
2018-06-11T18:52:47.173Z,7.43
2018-06-11T18:57:52.332Z,3.97
2018-06-11T19:02:56.354Z,6.47
2018-06-11T19:07:59.940Z,6.27
2018-06-11T19:13:03.631Z,4.83
2018-06-11T19:18:07.418Z,7.13
2018-06-11T19:23:11.118Z,6.33
2018-06-11T19:28:15.771Z,5.70
2018-06-11T19:33:26.333Z,6.03
2018-06-11T19:38:30.791Z,8.10
2018-06-11T19:43:35.029Z,5.77
2018-06-11T19:48:38.519Z,7.43
2018-06-11T19:53:41.956Z,7.67
2018-06-11T19:58:45.307Z,5.87
2018-06-11T20:03:49.103Z,8.00
2018-06-11T20:20:10.989Z,6.53
2018-06-11T20:25:14.712Z,7.50
2018-06-11T20:30:22.983Z,7.77
2018-06-11T20:35:26.608Z,5.90
2018-06-11T20:40:34.081Z,4.77
2018-06-11T20:45:37.813Z,3.07
2018-06-11T20:50:45.148Z,5.40
2018-06-11T20:55:49.599Z,5.87
2018-06-11T21:00:53.310Z,7.87
2018-06-11T21:05:56.922Z,4.37
2018-06-11T21:11:00.555Z,5.03
2018-06-11T21:16:03.950Z,8.33
2018-06-11T21:21:07.276Z,5.83
2018-06-11T21:26:10.603Z,6.67
2018-06-11T21:31:13.935Z,8.23
2018-06-11T21:36:17.262Z,9.70
2018-06-11T21:41:20.594Z,4.20
2018-06-11T21:46:24.687Z,6.40
2018-06-11T21:51:28.014Z,4.43
2018-06-11T21:56:31.348Z,6.07
2018-06-11T22:01:34.671Z,7.17
2018-06-11T22:06:37.992Z,8.07
2018-06-11T22:11:41.331Z,6.20
2018-06-11T22:16:44.666Z,3.70
2018-06-11T22:21:48.005Z,5.40
2018-06-11T22:26:52.095Z,3.23
